AirNav   Everest Fuels
 
 871 users online  

02HI K3 Helipad
Pearl Harbor, Hawaii, USA

GOING TO PEARL HARBOR?


FAA INFORMATION EFFECTIVE 10 SEPTEMBER 2020

Location

FAA Identifier: 02HI
Lat/Long: 21-21-43.3000N 157-57-02.6000W
21-21.721667N 157-57.043333W
21.3620278,-157.9507222
(estimated)
Elevation: 9 ft. / 3 m (estimated)
Variation: 10E (2000)
From city: 8 miles W of PEARL HARBOR, HI
Time zone: UTC -10 (year round; does not observe DST)
Zip code: 96860

Heliport Operations

Heliport use: Private use. Permission required prior to landing
Activation date: 11/2002
Control tower: no
ARTCC: HONOLULU CONTROL FACILITY CENTER
FSS: HONOLULU FLIGHT SERVICE STATION
Attendance: UNATNDD
Segmented circle: no

Heliport Communications

WX ASOS at HNL (3 nm SE): PHONE 808-836-0449
WX ASOS at JRF (7 nm SW): 119.8 (808-673-7454)

Nearby radio navigation aids

VOR radial/distance  VOR name  Freq  Var
HNLr330/3.4HONOLULU VORTAC114.8011E
CKHr282/15.0KOKO HEAD VORTAC113.9011E

 
NDB name  Hdg/Dist  Freq  Var  ID
EWABE057/5.924211EHN .... -.

Heliport Services

Runway Information

Helipad H1

Dimensions: 100 x 100 ft. / 30 x 30 m
Surface: concrete
Traffic pattern: leftleft

Heliport Ownership and Management from official FAA records

Ownership: U.S. Navy
Owner: COMMANDING OFFICER
US NAVAL REGION HAWAII, 517 RUSSELL AVE
PEARL HARBOR, HI 96860-4884
Phone 808-471-1170
Manager: COMMANDING OFFICER
FISC, 1942 GAFFNEY ST SUITE 100
PEARL HARBOR, HI 96860-4549
Phone 808-473-0961

Additional Remarks

FOR CD CTC HCF CENTER AT 808-840-6262

Instrument Procedures

There are no published instrument procedures at 02HI.

Some nearby airports with instrument procedures:

PHNL - Daniel K Inouye International Airport (3 nm SE)
PHJR - Kalaeloa Airport (John Rodgers Field) (7 nm SW)
PHMK - Molokai Airport (49 nm E)
PHLU - Kalaupapa Airport (55 nm E)
PHNY - Lanai Airport (66 nm SE)
 
Loc | Ops | Rwys | IFR | FBO | Links
Com | Nav | Svcs | Stats | Notes
Area around 02HI (K3 Helipad)
 
Road maps at: MapQuest Bing Google
 
Aerial photo
No photo
 
Sectional chart

 
Airport distance calculator
Flying to K3 Helipad? Find the distance to fly.

From to 02HI

Sunrise and sunset
Times for 22-Sep-2020
 Local
(UTC-10)
 Zulu
(UTC)
Morning civil twilight06:0016:00
Sunrise06:2216:22
Sunset18:2604:26
Evening civil twilight18:4904:49

Current date and time
Zulu (UTC)  22-Sep-2020 11:24:58
Local (UTC-10)  22-Sep-2020 01:24:58
 
METAR
PHNL 
2nm S 
221053Z 04010KT 10SM FEW020 SCT060 SCT250 25/19 A3001 RMK AO2 SLP162 T02500189
PHJR 
7nm SW 
221053Z AUTO 07004KT 10SM CLR 24/19 A3002 RMK AO2 SLP173 T02440189 TSNO
PHHI 
7nm NW 
221056Z AUTO 13003KT 10SM FEW036 FEW050 BKN065 23/19 A3003 RMK AO2 SLP158 T02290186 $
PHNG 
11nm NE 
221057Z 08009KT 10SM FEW027 SCT055 SCT075 26/20 A3000 RMK AO2 SLP153 T02610200
TAF
PHNL 
2nm S 
220322Z 2203/2306 06012G18KT P6SM FEW025 SCT045 SCT080 FM220600 06008KT P6SM FEW025 SCT045 FM221900 06014G20KT P6SM FEW025 SCT045 FM230500 06010KT P6SM FEW025 SCT045
PHNG 
11nm NE 
2203/2303 07012KT 9999 FEW025 SCT080 QNH2996INS TEMPO 2214/2220 08010G18KT 8000 -SHRA BKN030 T26/2213Z T29/2223Z
NOTAMs
Click for the latest NOTAMs
NOTAMs are issued by the DoD/FAA and will open in a separate window not controlled by AirNav.

 

 
 

Would you like to see your business listed on this page?

 If your business provides an interesting product or service to pilots, flight crews, aircraft, or users of the K3 Helipad, you should consider listing it here.  To start the listing process, click on the button below
 
Add a business
 

Other Pages about K3 Helipad

Update a link
 
Copyright © AirNav, LLC. All rights reserved. Privacy Policy  Contact